Time;durP1;ratioP1;P1;durP2;ratioP2;P2;SDS_P1;SDS_P2;PMS_P1;PMS_P2;Temp;Humidity;BMP_temperature;BMP_pressure;BME280_temperature;BME280_humidity;BME280_pressure;Samples;Min_cycle;Max_cycle;Signal;HPM_P1;HPM_P2
2022/06/18 00:00:19;;;;;;;;;;;;;;;;;;2065240;28;19913;-81
2022/06/18 00:01:19;;;;;;;;;;;;;;;;;;2064881;28;19914;-81
2022/06/18 00:02:23;;;;;;;;;;;;;;;;;;2065593;28;20241;-80
2022/06/18 00:03:24;;;;;;;;;;;;;;;;;;2065479;28;20426;-83
2022/06/18 00:04:24;;;;;;;;;;;;;;;;;;2065788;28;20000;-80
2022/06/18 00:05:24;;;;;;;;;;;;;;;;;;2065628;28;19914;-80
2022/06/18 00:06:25;;;;;;;;;;;;;;;;;;2065236;28;19917;-83
2022/06/18 00:07:25;;;;;;;;;;;;;;;;;;2065115;28;19918;-84
2022/06/18 00:08:28;;;;;;;;;;;;;;;;;;2065740;28;19925;-85
2022/06/18 00:09:29;;;;;;;;;;;;;;;;;;2065761;28;19980;-84
2022/06/18 00:10:32;;;;;;;;;;;;;;;;;;2065797;28;19969;-84
2022/06/18 00:14:11;;;;;;;;;;;;;;;;;;2065846;28;19913;-85
2022/06/18 00:15:11;;;;;;;;;;;;;;;;;;2065689;28;20342;-84
2022/06/18 00:16:14;;;;;;;;;;;;;;;;;;2065915;28;20314;-85
2022/06/18 00:17:15;;;;;;;;;;;;;;;;;;2065133;28;20016;-84
2022/06/18 00:18:16;;;;;;;;;;;;;;;;;;2065625;28;20375;-84
2022/06/18 00:19:16;;;;;;;;;;;;;;;;;;2065736;28;19914;-85
2022/06/18 00:20:18;;;;;;;;;;;;;;;;;;2065243;28;20021;-85
2022/06/18 00:21:20;;;;;;;;;;;;;;;;;;2065158;28;19941;-86
2022/06/18 00:22:21;;;;;;;;;;;;;;;;;;2065793;28;19935;-84
2022/06/18 00:23:21;;;;;;;;;;;;;;;;;;2065892;28;20322;-82
2022/06/18 00:24:22;;;;;;;;;;;;;;;;;;2065251;28;20008;-83
2022/06/18 00:25:29;;;;;;;;;;;;;;;;;;2065352;28;20341;-82
2022/06/18 00:26:29;;;;;;;;;;;;;;;;;;2065855;28;19949;-83
2022/06/18 00:27:29;;;;;;;;;;;;;;;;;;2065616;28;19921;-84
2022/06/18 00:28:31;;;;;;;;;;;;;;;;;;2065189;28;20334;-85
2022/06/18 00:29:31;;;;;;;;;;;;;;;;;;2065070;28;20244;-84
2022/06/18 00:30:32;;;;;;;;;;;;;;;;;;2065063;28;19980;-84
2022/06/18 00:31:34;;;;;;;;;;;;;;;;;;2065315;28;19928;-85
2022/06/18 00:32:37;;;;;;;;;;;;;;;;;;2065922;28;19914;-84
2022/06/18 00:33:40;;;;;;;;;;;;;;;;;;2065364;28;20287;-85
2022/06/18 00:34:42;;;;;;;;;;;;;;;;;;2065264;28;20298;-84
2022/06/18 00:35:43;;;;;;;;;;;;;;;;;;2065819;28;19921;-84
2022/06/18 00:36:44;;;;;;;;;;;;;;;;;;2065193;28;19945;-82
2022/06/18 00:37:44;;;;;;;;;;;;;;;;;;2064843;28;19914;-81
2022/06/18 00:38:46;;;;;;;;;;;;;;;;;;2065540;28;19924;-81
2022/06/18 00:39:46;;;;;;;;;;;;;;;;;;2065429;28;20005;-82
2022/06/18 00:40:47;;;;;;;;;;;;;;;;;;2065463;28;19914;-84
2022/06/18 00:41:51;;;;;;;;;;;;;;;;;;2065502;28;20002;-81
2022/06/18 00:42:51;;;;;;;;;;;;;;;;;;2065490;28;19918;-78
2022/06/18 00:44:06;;;;;;;;;;;;;;;;;;2065059;28;19918;-82
2022/06/18 00:45:06;;;;;;;;;;;;;;;;;;2064982;28;19953;-82
2022/06/18 00:46:36;;;;;;;;;;;;;;;;;;2065039;28;19988;-82
2022/06/18 00:47:45;;;;;;;;;;;;;;;;;;2044372;28;19914;-81
2022/06/18 00:48:47;;;;;;;;;;;;;;;;;;2065792;28;19984;-84
2022/06/18 00:49:51;;;;;;;;;;;;;;;;;;2065113;28;19924;-85
2022/06/18 00:50:54;;;;;;;;;;;;;;;;;;2065026;28;19992;-84
2022/06/18 00:52:00;;;;;;;;;;;;;;;;;;2065775;28;19972;-84
2022/06/18 00:53:36;;;;;;;;;;;;;;;;;;2065646;28;20068;-81
2022/06/18 00:54:43;;;;;;;;;;;;;;;;;;2032853;29;20296;-84
2022/06/18 00:55:43;;;;;;;;;;;;;;;;;;2033024;29;19915;-82
2022/06/18 00:56:46;;;;;;;;;;;;;;;;;;2039183;28;20292;-85
2022/06/18 00:57:49;;;;;;;;;;;;;;;;;;2064845;28;20272;-82
2022/06/18 00:58:53;;;;;;;;;;;;;;;;;;2064861;28;19924;-84
2022/06/18 00:59:56;;;;;;;;;;;;;;;;;;2065124;28;19914;-79
2022/06/18 01:00:58;;;;;;;;;;;;;;;;;;2064954;28;19918;-84
2022/06/18 01:01:59;;;;;;;;;;;;;;;;;;2057344;28;19977;-85
2022/06/18 01:03:00;;;;;;;;;;;;;;;;;;2064870;28;19918;-85
2022/06/18 01:04:00;;;;;;;;;;;;;;;;;;2064721;28;19987;-85
2022/06/18 01:05:18;;;;;;;;;;;;;;;;;;2065244;28;20429;-86
2022/06/18 01:06:20;;;;;;;;;;;;;;;;;;2065535;28;19925;-85
2022/06/18 01:07:23;;;;;;;;;;;;;;;;;;2065491;28;20350;-84
2022/06/18 01:08:26;;;;;;;;;;;;;;;;;;2065459;28;20263;-85
2022/06/18 01:09:26;;;;;;;;;;;;;;;;;;2065542;28;19945;-86
2022/06/18 01:10:34;;;;;;;;;;;;;;;;;;2065124;28;19914;-85
2022/06/18 01:11:35;;;;;;;;;;;;;;;;;;2064936;28;19977;-85
2022/06/18 01:12:36;;;;;;;;;;;;;;;;;;2066037;28;19988;-85
2022/06/18 01:13:38;;;;;;;;;;;;;;;;;;2066863;28;19946;-85
2022/06/18 01:14:39;;;;;;;;;;;;;;;;;;2067460;28;20006;-85
2022/06/18 01:15:40;;;;;;;;;;;;;;;;;;2067111;28;19933;-84
2022/06/18 01:16:40;;;;;;;;;;;;;;;;;;2067067;28;20302;-85
2022/06/18 01:17:43;;;;;;;;;;;;;;;;;;2066546;28;20056;-85
2022/06/18 01:18:43;;;;;;;;;;;;;;;;;;2066976;28;20073;-85
2022/06/18 01:19:46;;;;;;;;;;;;;;;;;;2066897;28;19918;-84
2022/06/18 01:20:51;;;;;;;;;;;;;;;;;;2067118;28;19914;-84
2022/06/18 01:21:52;;;;;;;;;;;;;;;;;;2067046;28;20295;-83
2022/06/18 01:22:55;;;;;;;;;;;;;;;;;;2067324;28;19922;-86
2022/06/18 01:24:01;;;;;;;;;;;;;;;;;;2066933;28;19925;-85
2022/06/18 01:25:05;;;;;;;;;;;;;;;;;;2067168;28;19930;-85
2022/06/18 01:26:06;;;;;;;;;;;;;;;;;;2066833;28;19914;-84
2022/06/18 01:27:07;;;;;;;;;;;;;;;;;;2066650;28;20393;-84
2022/06/18 01:28:09;;;;;;;;;;;;;;;;;;2066385;28;19925;-84
2022/06/18 01:29:11;;;;;;;;;;;;;;;;;;2066565;28;20037;-84
2022/06/18 01:30:16;;;;;;;;;;;;;;;;;;2066626;28;19980;-84
2022/06/18 01:31:17;;;;;;;;;;;;;;;;;;2066697;28;20453;-84
2022/06/18 01:32:17;;;;;;;;;;;;;;;;;;2067030;28;19925;-84
2022/06/18 01:33:18;;;;;;;;;;;;;;;;;;2067024;28;20386;-85
2022/06/18 01:34:20;;;;;;;;;;;;;;;;;;2066281;28;19921;-85
2022/06/18 01:35:23;;;;;;;;;;;;;;;;;;2058592;28;19924;-84
2022/06/18 01:36:25;;;;;;;;;;;;;;;;;;2066617;28;19914;-84
2022/06/18 01:37:26;;;;;;;;;;;;;;;;;;2067047;28;19964;-84
2022/06/18 01:38:26;;;;;;;;;;;;;;;;;;2066913;28;20228;-84
2022/06/18 01:39:32;;;;;;;;;;;;;;;;;;2066803;28;20012;-84
2022/06/18 01:40:44;;;;;;;;;;;;;;;;;;2068490;28;20071;-83
2022/06/18 01:41:50;;;;;;;;;;;;;;;;;;2067227;28;19913;-83
2022/06/18 01:42:52;;;;;;;;;;;;;;;;;;2067043;28;19918;-85
2022/06/18 01:43:54;;;;;;;;;;;;;;;;;;2067112;28;20101;-85
2022/06/18 01:44:57;;;;;;;;;;;;;;;;;;2066057;28;19982;-85
2022/06/18 01:45:59;;;;;;;;;;;;;;;;;;2066414;28;19914;-85
2022/06/18 01:47:03;;;;;;;;;;;;;;;;;;2066362;28;19913;-85
2022/06/18 01:48:17;;;;;;;;;;;;;;;;;;2059423;28;19914;-84
2022/06/18 01:49:22;;;;;;;;;;;;;;;;;;2061222;28;19950;-85
2022/06/18 01:50:26;;;;;;;;;;;;;;;;;;2067313;28;19972;-84
2022/06/18 01:51:34;;;;;;;;;;;;;;;;;;2066681;28;20367;-83
2022/06/18 01:52:36;;;;;;;;;;;;;;;;;;2067021;28;19953;-84
2022/06/18 01:53:43;;;;;;;;;;;;;;;;;;2067068;28;19914;-84
2022/06/18 01:54:52;;;;;;;;;;;;;;;;;;2066577;28;19925;-84
2022/06/18 01:55:59;;;;;;;;;;;;;;;;;;2066748;28;20299;-84
2022/06/18 01:57:03;;;;;;;;;;;;;;;;;;2066902;28;19913;-85
2022/06/18 01:58:05;;;;;;;;;;;;;;;;;;2067179;28;19922;-84
2022/06/18 01:59:14;;;;;;;;;;;;;;;;;;2066810;28;20340;-85
2022/06/18 02:00:19;;;;;;;;;;;;;;;;;;2067064;28;20492;-85
2022/06/18 02:01:27;;;;;;;;;;;;;;;;;;2066679;28;19940;-84
2022/06/18 02:02:27;;;;;;;;;;;;;;;;;;2067363;28;20418;-84
2022/06/18 02:03:27;;;;;;;;;;;;;;;;;;2066797;28;19921;-85
2022/06/18 02:04:28;;;;;;;;;;;;;;;;;;2066534;28;19913;-85
2022/06/18 02:05:28;;;;;;;;;;;;;;;;;;2066653;28;19917;-84
2022/06/18 02:06:30;;;;;;;;;;;;;;;;;;2066259;28;20359;-84
2022/06/18 02:07:30;;;;;;;;;;;;;;;;;;2066780;28;19921;-83
2022/06/18 02:08:30;;;;;;;;;;;;;;;;;;2066915;28;20200;-83
2022/06/18 02:09:40;;;;;;;;;;;;;;;;;;2066762;28;19975;-83
2022/06/18 02:10:52;;;;;;;;;;;;;;;;;;2066354;28;19913;-83
2022/06/18 02:11:55;;;;;;;;;;;;;;;;;;2066048;28;20017;-83
2022/06/18 02:12:57;;;;;;;;;;;;;;;;;;2066442;28;19949;-82
2022/06/18 02:14:03;;;;;;;;;;;;;;;;;;2066447;28;19913;-82
2022/06/18 02:15:05;;;;;;;;;;;;;;;;;;2069648;28;20352;-81
2022/06/18 02:16:08;;;;;;;;;;;;;;;;;;2066578;28;19925;-81
2022/06/18 02:17:12;;;;;;;;;;;;;;;;;;2066867;28;19973;-80
2022/06/18 02:18:13;;;;;;;;;;;;;;;;;;2066548;28;19925;-80
2022/06/18 02:19:15;;;;;;;;;;;;;;;;;;2066668;28;19921;-79
2022/06/18 02:20:20;;;;;;;;;;;;;;;;;;2066333;28;19981;-79
2022/06/18 02:21:22;;;;;;;;;;;;;;;;;;2066515;28;19946;-79
2022/06/18 02:22:31;;;;;;;;;;;;;;;;;;2066331;28;20367;-79
2022/06/18 02:23:31;;;;;;;;;;;;;;;;;;2066355;28;20367;-79
2022/06/18 02:24:31;;;;;;;;;;;;;;;;;;2066099;28;19925;-80
2022/06/18 02:25:32;;;;;;;;;;;;;;;;;;2066559;28;19925;-80
2022/06/18 02:26:33;;;;;;;;;;;;;;;;;;2066666;28;19925;-80
2022/06/18 02:27:34;;;;;;;;;;;;;;;;;;2065918;28;19926;-79
2022/06/18 02:28:39;;;;;;;;;;;;;;;;;;2066062;28;20351;-80
2022/06/18 02:29:41;;;;;;;;;;;;;;;;;;2066290;28;20363;-79
2022/06/18 02:30:42;;;;;;;;;;;;;;;;;;2066501;28;20335;-79
2022/06/18 02:31:45;;;;;;;;;;;;;;;;;;2066497;28;20083;-79
2022/06/18 02:32:53;;;;;;;;;;;;;;;;;;2065562;28;19957;-79
2022/06/18 02:34:09;;;;;;;;;;;;;;;;;;2066301;28;19914;-79
2022/06/18 02:35:13;;;;;;;;;;;;;;;;;;2066462;28;19917;-79
2022/06/18 02:36:17;;;;;;;;;;;;;;;;;;2065751;28;19925;-79
2022/06/18 02:37:22;;;;;;;;;;;;;;;;;;2065862;28;19925;-79
2022/06/18 02:38:22;;;;;;;;;;;;;;;;;;2066177;28;19960;-79
2022/06/18 02:39:22;;;;;;;;;;;;;;;;;;2066210;28;19925;-79
2022/06/18 02:40:25;;;;;;;;;;;;;;;;;;2066001;28;19914;-78
2022/06/18 02:41:27;;;;;;;;;;;;;;;;;;2066755;28;19922;-80
2022/06/18 02:42:31;;;;;;;;;;;;;;;;;;2065933;28;19928;-78
2022/06/18 02:43:32;;;;;;;;;;;;;;;;;;2065897;28;19913;-79
2022/06/18 02:44:33;;;;;;;;;;;;;;;;;;2066469;28;19918;-79
2022/06/18 02:45:34;;;;;;;;;;;;;;;;;;2066503;28;19914;-80
2022/06/18 02:46:34;;;;;;;;;;;;;;;;;;2066247;28;19924;-79
2022/06/18 02:47:35;;;;;;;;;;;;;;;;;;2066083;28;19947;-79
2022/06/18 02:48:36;;;;;;;;;;;;;;;;;;2066460;28;19949;-80
2022/06/18 02:49:39;;;;;;;;;;;;;;;;;;2065955;28;19914;-79
2022/06/18 02:50:40;;;;;;;;;;;;;;;;;;2066101;28;20387;-79
2022/06/18 02:51:41;;;;;;;;;;;;;;;;;;2065815;28;20335;-79
2022/06/18 02:52:47;;;;;;;;;;;;;;;;;;2065334;28;19921;-80
2022/06/18 02:53:47;;;;;;;;;;;;;;;;;;2059025;28;20389;-79
2022/06/18 02:54:50;;;;;;;;;;;;;;;;;;2066213;28;19924;-80
2022/06/18 02:55:52;;;;;;;;;;;;;;;;;;2058106;28;19994;-80
2022/06/18 02:56:53;;;;;;;;;;;;;;;;;;2065957;28;20363;-80
2022/06/18 02:57:55;;;;;;;;;;;;;;;;;;2057393;28;19985;-80
2022/06/18 02:58:55;;;;;;;;;;;;;;;;;;2065847;28;19918;-79
2022/06/18 02:59:56;;;;;;;;;;;;;;;;;;2065930;28;20398;-79
2022/06/18 03:00:57;;;;;;;;;;;;;;;;;;2065706;28;19917;-79
2022/06/18 03:01:57;;;;;;;;;;;;;;;;;;2066077;28;19936;-80
2022/06/18 03:02:58;;;;;;;;;;;;;;;;;;2065653;28;20367;-80
2022/06/18 03:03:59;;;;;;;;;;;;;;;;;;2065730;28;19921;-78
2022/06/18 03:04:59;;;;;;;;;;;;;;;;;;2066229;28;20413;-79
2022/06/18 03:06:00;;;;;;;;;;;;;;;;;;2065598;28;19913;-80
2022/06/18 03:07:00;;;;;;;;;;;;;;;;;;2065562;28;19914;-80
2022/06/18 03:08:01;;;;;;;;;;;;;;;;;;2065725;28;20279;-80
2022/06/18 03:09:02;;;;;;;;;;;;;;;;;;2066055;28;19992;-79
2022/06/18 03:12:42;;;;;;;;;;;;;;;;;;2065744;28;20358;-80
2022/06/18 03:13:43;;;;;;;;;;;;;;;;;;2066141;28;19914;-80
2022/06/18 03:14:44;;;;;;;;;;;;;;;;;;2065420;28;20387;-80
2022/06/18 03:15:44;;;;;;;;;;;;;;;;;;2065452;28;19967;-80
2022/06/18 03:16:45;;;;;;;;;;;;;;;;;;2065648;28;20008;-80
2022/06/18 03:17:45;;;;;;;;;;;;;;;;;;2065511;28;20341;-80
2022/06/18 03:18:46;;;;;;;;;;;;;;;;;;2065354;28;20283;-80
2022/06/18 03:19:52;;;;;;;;;;;;;;;;;;2065566;28;19996;-78
2022/06/18 03:21:02;;;;;;;;;;;;;;;;;;2066181;28;19918;-79
2022/06/18 03:22:05;;;;;;;;;;;;;;;;;;2064998;28;19941;-79
2022/06/18 03:23:05;;;;;;;;;;;;;;;;;;2065575;28;19914;-80
2022/06/18 03:24:06;;;;;;;;;;;;;;;;;;2064864;28;19914;-81
2022/06/18 03:25:06;;;;;;;;;;;;;;;;;;2065574;28;20291;-80
2022/06/18 03:26:07;;;;;;;;;;;;;;;;;;2066385;28;19914;-80
2022/06/18 03:27:08;;;;;;;;;;;;;;;;;;2065794;28;19914;-80
2022/06/18 03:28:11;;;;;;;;;;;;;;;;;;2065679;28;19957;-81
2022/06/18 03:29:14;;;;;;;;;;;;;;;;;;2066376;28;19977;-80
2022/06/18 03:30:14;;;;;;;;;;;;;;;;;;2066247;28;19961;-80
2022/06/18 03:31:14;;;;;;;;;;;;;;;;;;2066086;28;19932;-81
2022/06/18 03:32:14;;;;;;;;;;;;;;;;;;2065744;28;20438;-81
2022/06/18 03:33:17;;;;;;;;;;;;;;;;;;2065754;28;19925;-79
2022/06/18 03:34:17;;;;;;;;;;;;;;;;;;2065920;28;19914;-82
2022/06/18 03:35:18;;;;;;;;;;;;;;;;;;2066062;28;19937;-81
2022/06/18 03:36:26;;;;;;;;;;;;;;;;;;2065013;28;19976;-80
2022/06/18 03:37:26;;;;;;;;;;;;;;;;;;2065847;28;19914;-82
2022/06/18 03:38:27;;;;;;;;;;;;;;;;;;2065965;28;20016;-81
2022/06/18 03:39:29;;;;;;;;;;;;;;;;;;2066227;28;20076;-81
2022/06/18 03:40:29;;;;;;;;;;;;;;;;;;2065807;28;20009;-82
2022/06/18 03:41:30;;;;;;;;;;;;;;;;;;2065683;28;19914;-81
2022/06/18 03:42:30;;;;;;;;;;;;;;;;;;2065975;28;19953;-82
2022/06/18 03:43:31;;;;;;;;;;;;;;;;;;2065313;28;20371;-80
2022/06/18 03:44:31;;;;;;;;;;;;;;;;;;2065253;28;20029;-80
2022/06/18 03:45:37;;;;;;;;;;;;;;;;;;2065382;28;19925;-81
2022/06/18 03:46:38;;;;;;;;;;;;;;;;;;2065108;28;19914;-81
2022/06/18 03:47:41;;;;;;;;;;;;;;;;;;2064566;28;19914;-80
2022/06/18 03:48:44;;;;;;;;;;;;;;;;;;2065461;28;19940;-81
2022/06/18 03:49:45;;;;;;;;;;;;;;;;;;2065122;28;19921;-82
2022/06/18 03:50:45;;;;;;;;;;;;;;;;;;2065184;28;19949;-81
2022/06/18 03:51:45;;;;;;;;;;;;;;;;;;2065330;28;19941;-80
2022/06/18 03:52:46;;;;;;;;;;;;;;;;;;2065516;28;19968;-81
2022/06/18 03:53:46;;;;;;;;;;;;;;;;;;2065802;28;19914;-82
2022/06/18 03:54:47;;;;;;;;;;;;;;;;;;2065566;28;19914;-80
2022/06/18 03:55:47;;;;;;;;;;;;;;;;;;2065590;28;20387;-82
2022/06/18 03:56:48;;;;;;;;;;;;;;;;;;2065372;28;19925;-82
2022/06/18 03:57:50;;;;;;;;;;;;;;;;;;2065756;28;19913;-82
2022/06/18 03:58:51;;;;;;;;;;;;;;;;;;2065759;28;20276;-83
2022/06/18 03:59:51;;;;;;;;;;;;;;;;;;2065138;28;19921;-81
2022/06/18 04:00:52;;;;;;;;;;;;;;;;;;2064601;28;20053;-81
2022/06/18 04:01:57;;;;;;;;;;;;;;;;;;2057091;28;19968;-81
2022/06/18 04:02:58;;;;;;;;;;;;;;;;;;2064874;28;20024;-82
2022/06/18 04:03:58;;;;;;;;;;;;;;;;;;2065609;28;20406;-81
2022/06/18 04:04:58;;;;;;;;;;;;;;;;;;2065445;28;19941;-82
2022/06/18 04:05:59;;;;;;;;;;;;;;;;;;2066054;28;19983;-82
2022/06/18 04:07:00;;;;;;;;;;;;;;;;;;2065587;28;19925;-81
2022/06/18 04:08:00;;;;;;;;;;;;;;;;;;2065322;28;19914;-81
2022/06/18 04:09:00;;;;;;;;;;;;;;;;;;2064659;28;19914;-81
2022/06/18 04:10:01;;;;;;;;;;;;;;;;;;2064943;28;19917;-81
2022/06/18 04:11:01;;;;;;;;;;;;;;;;;;2064636;28;19920;-81
2022/06/18 04:12:02;;;;;;;;;;;;;;;;;;2065288;28;19917;-82
2022/06/18 04:13:02;;;;;;;;;;;;;;;;;;2065020;28;19949;-81
2022/06/18 04:14:03;;;;;;;;;;;;;;;;;;2064786;28;19942;-81
2022/06/18 04:15:06;;;;;;;;;;;;;;;;;;2065635;28;19990;-81
2022/06/18 04:16:07;;;;;;;;;;;;;;;;;;2065234;28;19914;-81
2022/06/18 04:17:10;;;;;;;;;;;;;;;;;;2065064;28;19968;-81
2022/06/18 04:18:12;;;;;;;;;;;;;;;;;;2064548;28;20024;-82
2022/06/18 04:19:13;;;;;;;;;;;;;;;;;;2064605;28;19922;-82
2022/06/18 04:20:24;;;;;;;;;;;;;;;;;;2065318;28;19914;-82
2022/06/18 04:21:27;;;;;;;;;;;;;;;;;;2066822;28;19913;-82
2022/06/18 04:22:28;;;;;;;;;;;;;;;;;;2064813;28;19932;-83
2022/06/18 04:23:29;;;;;;;;;;;;;;;;;;2064962;28;20009;-82
2022/06/18 04:24:29;;;;;;;;;;;;;;;;;;2065325;28;20366;-82
2022/06/18 04:25:29;;;;;;;;;;;;;;;;;;2065104;28;20269;-81
2022/06/18 04:26:30;;;;;;;;;;;;;;;;;;2065548;28;19937;-82
2022/06/18 04:27:30;;;;;;;;;;;;;;;;;;2065039;28;19917;-81
2022/06/18 04:28:31;;;;;;;;;;;;;;;;;;2064766;28;19930;-81
2022/06/18 04:29:32;;;;;;;;;;;;;;;;;;2064408;28;19941;-82
2022/06/18 04:30:32;;;;;;;;;;;;;;;;;;2064366;28;19920;-83
2022/06/18 04:31:32;;;;;;;;;;;;;;;;;;2064576;28;19933;-81
2022/06/18 04:32:35;;;;;;;;;;;;;;;;;;2064417;28;20382;-81
2022/06/18 04:33:35;;;;;;;;;;;;;;;;;;2064611;28;19917;-82
2022/06/18 04:34:36;;;;;;;;;;;;;;;;;;2064975;28;19914;-83
2022/06/18 04:35:36;;;;;;;;;;;;;;;;;;2064967;28;20068;-82
2022/06/18 04:36:38;;;;;;;;;;;;;;;;;;2064599;28;19980;-81
2022/06/18 04:37:41;;;;;;;;;;;;;;;;;;2064402;28;19922;-80
2022/06/18 04:38:41;;;;;;;;;;;;;;;;;;2065306;28;19921;-83
2022/06/18 04:39:41;;;;;;;;;;;;;;;;;;2065055;28;20109;-83
2022/06/18 04:40:42;;;;;;;;;;;;;;;;;;2064357;28;19917;-82
2022/06/18 04:41:42;;;;;;;;;;;;;;;;;;2064708;28;20382;-82
2022/06/18 04:42:42;;;;;;;;;;;;;;;;;;2064703;28;19925;-84
2022/06/18 04:43:42;;;;;;;;;;;;;;;;;;2064980;28;20073;-84
2022/06/18 04:44:43;;;;;;;;;;;;;;;;;;2065096;28;20012;-83
2022/06/18 04:45:43;;;;;;;;;;;;;;;;;;2065345;28;20072;-84
2022/06/18 04:46:43;;;;;;;;;;;;;;;;;;2064815;28;19925;-83
2022/06/18 04:47:44;;;;;;;;;;;;;;;;;;2065637;28;20027;-83
2022/06/18 04:48:44;;;;;;;;;;;;;;;;;;2067180;28;20256;-82
2022/06/18 04:49:44;;;;;;;;;;;;;;;;;;2066042;28;19925;-82
2022/06/18 04:50:44;;;;;;;;;;;;;;;;;;2065813;28;19920;-81
2022/06/18 04:51:45;;;;;;;;;;;;;;;;;;2066542;28;20301;-83
2022/06/18 04:52:45;;;;;;;;;;;;;;;;;;2066460;28;20023;-84
2022/06/18 04:53:45;;;;;;;;;;;;;;;;;;2066539;28;19956;-82
2022/06/18 04:54:46;;;;;;;;;;;;;;;;;;2066872;28;20374;-81
2022/06/18 04:55:46;;;;;;;;;;;;;;;;;;2066266;28;19914;-82
2022/06/18 04:56:48;;;;;;;;;;;;;;;;;;2066515;28;19960;-83
2022/06/18 04:57:49;;;;;;;;;;;;;;;;;;2066683;28;19913;-83
2022/06/18 04:58:49;;;;;;;;;;;;;;;;;;2066056;28;20268;-83
2022/06/18 04:59:52;;;;;;;;;;;;;;;;;;2066496;28;19914;-83
2022/06/18 05:00:53;;;;;;;;;;;;;;;;;;2065894;28;19951;-82
2022/06/18 05:02:00;;;;;;;;;;;;;;;;;;2065877;28;19921;-83
2022/06/18 05:03:00;;;;;;;;;;;;;;;;;;2066376;28;19913;-83
2022/06/18 05:04:01;;;;;;;;;;;;;;;;;;2065808;28;20316;-82
2022/06/18 05:05:02;;;;;;;;;;;;;;;;;;2065794;28;20402;-83
2022/06/18 05:06:02;;;;;;;;;;;;;;;;;;2066006;28;19918;-83
2022/06/18 05:07:03;;;;;;;;;;;;;;;;;;2066371;28;19949;-83
2022/06/18 05:08:03;;;;;;;;;;;;;;;;;;2065497;28;19918;-83
2022/06/18 05:09:04;;;;;;;;;;;;;;;;;;2065860;28;19913;-83
2022/06/18 05:10:04;;;;;;;;;;;;;;;;;;2066460;28;19925;-83
2022/06/18 05:11:05;;;;;;;;;;;;;;;;;;2065830;28;19913;-83
2022/06/18 05:12:06;;;;;;;;;;;;;;;;;;2065817;28;19914;-83
2022/06/18 05:13:06;;;;;;;;;;;;;;;;;;2065986;28;19924;-82
2022/06/18 05:14:07;;;;;;;;;;;;;;;;;;2057939;28;19972;-83
2022/06/18 05:15:08;;;;;;;;;;;;;;;;;;2057982;28;20256;-83
2022/06/18 05:16:08;;;;;;;;;;;;;;;;;;2065771;28;19991;-83
2022/06/18 05:17:11;;;;;;;;;;;;;;;;;;2066361;28;19913;-84
2022/06/18 05:18:13;;;;;;;;;;;;;;;;;;2066480;28;19922;-84
2022/06/18 05:19:24;;;;;;;;;;;;;;;;;;2066559;28;19976;-83
2022/06/18 05:20:24;;;;;;;;;;;;;;;;;;2065717;28;19976;-82
2022/06/18 05:21:24;;;;;;;;;;;;;;;;;;2065927;28;20417;-83
2022/06/18 05:22:25;;;;;;;;;;;;;;;;;;2066211;28;20418;-84
2022/06/18 05:23:26;;;;;;;;;;;;;;;;;;2066586;28;20008;-84
2022/06/18 05:24:26;;;;;;;;;;;;;;;;;;2066313;28;20262;-84
2022/06/18 05:25:29;;;;;;;;;;;;;;;;;;2065619;28;19985;-83
2022/06/18 05:26:29;;;;;;;;;;;;;;;;;;2065924;28;20059;-84
2022/06/18 05:27:33;;;;;;;;;;;;;;;;;;2065810;28;19921;-83
2022/06/18 05:28:33;;;;;;;;;;;;;;;;;;2065829;28;19914;-81
2022/06/18 05:29:34;;;;;;;;;;;;;;;;;;2065812;28;19924;-82
2022/06/18 05:30:34;;;;;;;;;;;;;;;;;;2065712;28;19987;-82
2022/06/18 05:31:34;;;;;;;;;;;;;;;;;;2066396;28;20378;-84
2022/06/18 05:32:34;;;;;;;;;;;;;;;;;;2066254;28;19980;-83
2022/06/18 05:33:38;;;;;;;;;;;;;;;;;;2065941;28;20387;-82
2022/06/18 05:34:38;;;;;;;;;;;;;;;;;;2065210;28;20036;-84
2022/06/18 05:35:40;;;;;;;;;;;;;;;;;;2065486;28;19961;-83
2022/06/18 05:36:40;;;;;;;;;;;;;;;;;;2065697;28;19925;-84
2022/06/18 05:37:40;;;;;;;;;;;;;;;;;;2065731;28;19914;-83
2022/06/18 05:38:41;;;;;;;;;;;;;;;;;;2066107;28;20194;-84
2022/06/18 05:39:41;;;;;;;;;;;;;;;;;;2066292;28;20375;-84
2022/06/18 05:40:42;;;;;;;;;;;;;;;;;;2066464;28;19914;-84
2022/06/18 05:41:42;;;;;;;;;;;;;;;;;;2065513;28;19928;-84
2022/06/18 05:42:42;;;;;;;;;;;;;;;;;;2065792;28;19918;-84
2022/06/18 05:43:43;;;;;;;;;;;;;;;;;;2065635;28;20271;-84
2022/06/18 05:44:43;;;;;;;;;;;;;;;;;;2066245;28;19949;-83
2022/06/18 05:45:43;;;;;;;;;;;;;;;;;;2066049;28;20369;-84
2022/06/18 05:46:48;;;;;;;;;;;;;;;;;;2065654;28;19913;-84
2022/06/18 05:47:48;;;;;;;;;;;;;;;;;;2065532;28;19914;-83
2022/06/18 05:48:49;;;;;;;;;;;;;;;;;;2066075;28;19914;-83
2022/06/18 05:49:51;;;;;;;;;;;;;;;;;;2065363;28;19914;-83
2022/06/18 05:50:51;;;;;;;;;;;;;;;;;;2065591;28;19945;-84
2022/06/18 05:51:55;;;;;;;;;;;;;;;;;;2066050;28;19937;-83
2022/06/18 05:52:55;;;;;;;;;;;;;;;;;;2065974;28;19976;-84
2022/06/18 05:53:55;;;;;;;;;;;;;;;;;;2066284;28;20322;-84
2022/06/18 05:54:56;;;;;;;;;;;;;;;;;;2065961;28;19993;-84
2022/06/18 05:55:58;;;;;;;;;;;;;;;;;;2066019;28;19996;-83
2022/06/18 05:56:59;;;;;;;;;;;;;;;;;;2066126;28;19917;-84
2022/06/18 05:57:59;;;;;;;;;;;;;;;;;;2066272;28;19914;-83
2022/06/18 05:58:59;;;;;;;;;;;;;;;;;;2065420;28;19914;-83
2022/06/18 06:00:04;;;;;;;;;;;;;;;;;;2066057;28;20270;-83
2022/06/18 06:01:04;;;;;;;;;;;;;;;;;;2066184;28;19944;-84
2022/06/18 06:02:05;;;;;;;;;;;;;;;;;;2066150;28;20190;-83
2022/06/18 06:03:08;;;;;;;;;;;;;;;;;;2065915;28;19961;-83
2022/06/18 06:04:08;;;;;;;;;;;;;;;;;;2066072;28;19914;-83
2022/06/18 06:05:08;;;;;;;;;;;;;;;;;;2065757;28;19914;-83
2022/06/18 06:06:09;;;;;;;;;;;;;;;;;;2066252;28;19914;-83
2022/06/18 06:07:13;;;;;;;;;;;;;;;;;;2065152;28;19964;-83
2022/06/18 06:08:14;;;;;;;;;;;;;;;;;;2065375;28;19924;-84
2022/06/18 06:11:28;;;;;;;;;;;;;;;;;;2065320;28;19995;-84
2022/06/18 06:11:54;;;;;;;;;;;;;;;;;;2065741;28;20317;-84
2022/06/18 06:12:54;;;;;;;;;;;;;;;;;;2065297;28;19929;-85
2022/06/18 06:13:54;;;;;;;;;;;;;;;;;;2065476;28;20287;-84
2022/06/18 06:14:56;;;;;;;;;;;;;;;;;;2066054;28;19983;-83
2022/06/18 06:15:56;;;;;;;;;;;;;;;;;;2065332;28;20463;-83
2022/06/18 06:16:59;;;;;;;;;;;;;;;;;;2065476;28;19952;-84
2022/06/18 06:17:59;;;;;;;;;;;;;;;;;;2070021;28;19917;-83
2022/06/18 06:19:00;;;;;;;;;;;;;;;;;;2067141;28;19918;-83
2022/06/18 06:20:02;;;;;;;;;;;;;;;;;;2066366;28;19921;-86
2022/06/18 06:21:03;;;;;;;;;;;;;;;;;;2066454;28;20362;-84
2022/06/18 06:22:03;;;;;;;;;;;;;;;;;;2069314;28;19975;-84
2022/06/18 06:23:05;;;;;;;;;;;;;;;;;;2069966;28;20020;-82
2022/06/18 06:24:05;;;;;;;;;;;;;;;;;;2073108;28;19940;-83
2022/06/18 06:25:06;;;;;;;;;;;;;;;;;;2069055;28;20593;-84
2022/06/18 06:26:25;;;;;;;;;;;;;;;;;;2070083;28;19960;-82
2022/06/18 06:27:26;;;;;;;;;;;;;;;;;;2070241;28;19929;-83
2022/06/18 06:28:27;;;;;;;;;;;;;;;;;;2066357;28;20303;-83
2022/06/18 06:29:27;;;;;;;;;;;;;;;;;;2071815;28;19917;-83
2022/06/18 06:30:31;;;;;;;;;;;;;;;;;;2069248;28;19918;-83
2022/06/18 06:31:31;;;;;;;;;;;;;;;;;;2068075;28;19932;-84
2022/06/18 06:32:31;;;;;;;;;;;;;;;;;;2067728;28;20001;-82
2022/06/18 06:33:32;;;;;;;;;;;;;;;;;;2067095;28;19999;-83
2022/06/18 06:34:34;;;;;;;;;;;;;;;;;;2065660;28;19925;-82
2022/06/18 06:35:35;;;;;;;;;;;;;;;;;;2068454;28;20358;-81
2022/06/18 06:36:35;;;;;;;;;;;;;;;;;;2071328;28;19913;-83
2022/06/18 06:37:35;;;;;;;;;;;;;;;;;;2071736;28;20451;-79
2022/06/18 06:38:37;;;;;;;;;;;;;;;;;;2071522;28;19917;-82
2022/06/18 06:39:38;;;;;;;;;;;;;;;;;;2071912;28;20369;-81
2022/06/18 06:40:40;;;;;;;;;;;;;;;;;;2073819;28;20020;-82
2022/06/18 06:41:40;;;;;;;;;;;;;;;;;;2072961;28;20349;-82
2022/06/18 06:42:49;;;;;;;;;;;;;;;;;;2061881;28;19920;-83
2022/06/18 06:43:49;;;;;;;;;;;;;;;;;;2067492;28;19928;-83
2022/06/18 06:44:54;;;;;;;;;;;;;;;;;;2069703;28;20294;-83
2022/06/18 06:45:54;;;;;;;;;;;;;;;;;;2062661;28;19956;-82
2022/06/18 06:46:54;;;;;;;;;;;;;;;;;;2071474;28;19918;-82
2022/06/18 06:47:55;;;;;;;;;;;;;;;;;;2071066;28;19964;-82
2022/06/18 06:48:55;;;;;;;;;;;;;;;;;;2070524;28;20016;-82
2022/06/18 06:49:55;;;;;;;;;;;;;;;;;;2072956;28;19914;-81
2022/06/18 06:50:56;;;;;;;;;;;;;;;;;;2064491;28;19914;-82
2022/06/18 06:51:56;;;;;;;;;;;;;;;;;;2067648;28;20425;-81
2022/06/18 06:52:57;;;;;;;;;;;;;;;;;;2069458;28;19980;-81
2022/06/18 06:53:57;;;;;;;;;;;;;;;;;;2067672;28;20009;-82
2022/06/18 06:57:37;;;;;;;;;;;;;;;;;;2073501;28;20371;-77
2022/06/18 06:58:37;;;;;;;;;;;;;;;;;;2068211;28;19917;-82
2022/06/18 06:59:38;;;;;;;;;;;;;;;;;;2066504;28;20015;-82
2022/06/18 07:00:42;;;;;;;;;;;;;;;;;;2068208;28;19917;-82
2022/06/18 07:01:42;;;;;;;;;;;;;;;;;;2067591;28;20016;-80
2022/06/18 07:02:43;;;;;;;;;;;;;;;;;;2068654;28;19918;-83
2022/06/18 07:03:43;;;;;;;;;;;;;;;;;;2071090;28;19929;-82
2022/06/18 07:04:43;;;;;;;;;;;;;;;;;;2072439;28;20012;-82
2022/06/18 07:05:44;;;;;;;;;;;;;;;;;;2066068;28;19925;-80
2022/06/18 07:06:45;;;;;;;;;;;;;;;;;;2068641;28;19922;-81
2022/06/18 07:07:45;;;;;;;;;;;;;;;;;;2070175;28;20449;-83
2022/06/18 07:08:45;;;;;;;;;;;;;;;;;;2067343;28;19917;-82
2022/06/18 07:09:45;;;;;;;;;;;;;;;;;;2066381;28;20666;-83
2022/06/18 07:10:48;;;;;;;;;;;;;;;;;;2065597;28;19928;-83
2022/06/18 07:11:48;;;;;;;;;;;;;;;;;;2063413;28;20373;-79
2022/06/18 07:13:09;;;;;;;;;;;;;;;;;;2071106;28;19925;-82